Sonic Adventure (DX): Overall Rankings

Records: Times | Rings | Scores | Races | Bosses | Freestyle
Leaders: Times | Rings | Scores | Races | Bosses | Freestyle | Overall
Rank Player Percent Points Date
1 Sonicspeedruner 97.9% 373 01-17-22
2 Gamepro011 97.6% 433 01-17-22
3 DarkPolarNight 96.2% 680 01-17-22
4 Jawzun 92.7% 1330 01-17-22
5 Dashjump 91.1% 1617 01-17-22
6 Avento128bits 89.2% 1969 01-17-22
7 DarkspinesSonic 89.1% 1985 01-17-22
8 ike6252 88.9% 2023 01-17-22
9 F-Man 87.1% 2359 01-17-22
10 Coolfansonic 86.9% 2387 01-17-22
11 TheRealShadnic 85.0% 2732 01-17-22
12 HyperSonic7701 84.3% 2867 01-17-22
13 Nim 83.6% 2998 01-17-22
14 yoshifan 82.1% 3265 01-17-22
15 frankoredstrato 81.6% 3353 01-17-22
16 francisco 80.7% 3520 01-17-22
17 Marth 80.4% 3585 01-17-22
18 InferSaime 79.2% 3794 01-17-22
19 PfoSonic 78.7% 3893 01-17-22
20 Paragod 78.3% 3959 01-17-22
21 THC98 77.5% 4117 01-17-22
22 Stefan 75.0% 4560 01-17-22
23 Dekuboy 73.9% 4763 01-17-22
24 RPGnutter 73.1% 4924 01-17-22
25 bertin 72.8% 4968 01-17-22
26 sonicam 70.8% 5331 01-17-22
27 chaos shadow 70.0% 5487 01-17-22
28 drminus 69.2% 5627 01-17-22
29 chainchump 65.3% 6351 01-17-22
30 Combo 64.9% 6421 01-17-22
31 SkyLights 63.7% 6644 01-17-22
32 xXMegaManXx 62.1% 6928 01-17-22
33 Diamond 61.7% 7003 01-17-22
34 Auriman1 59.6% 7381 01-17-22
35 GerbilSoft 59.6% 7385 01-17-22
36 OmegaDJ 59.5% 7404 01-17-22
37 magnum12 58.8% 7534 01-17-22
38 Thorn 56.5% 7949 01-17-22
39 P1 Pause 56.3% 7993 01-17-22
40 mike89 55.1% 8207 01-17-22
41 Dave Cramer 53.3% 8537 01-17-22
42 Groudon199 53.1% 8578 01-17-22
43 Parax 52.5% 8680 01-17-22
44 SPVLABS 52.2% 8749 01-17-22
45 Shadow Jacky 52.1% 8753 01-17-22
46 CoEmpathy 49.2% 9289 01-17-22
47 Zurggriff 48.6% 9394 01-17-22
48 Niczur 47.1% 9681 01-17-22
49 Psymar 47.0% 9692 01-17-22
50 Arch 46.2% 9832 01-17-22
51 Chao_Fan 45.5% 9968 01-17-22
52 mauserman 44.8% 10103 01-17-22
53 Quartz 44.2% 10200 01-17-22
54 teamblackarms 43.6% 10308 01-17-22
55 Psyknux 42.8% 10462 01-17-22
56 Cyan Ryan 42.3% 10550 01-17-22
57 James_Bertolli 42.3% 10556 01-17-22
58 NintenDan 42.0% 10601 01-17-22
59 Turbos 41.4% 10723 01-17-22
60 Webber3000 41.4% 10726 01-17-22
61 Ring Rush 41.2% 10757 01-17-22
62 Cream147 41.0% 10793 01-17-22
63 Fr3nZy 40.9% 10803 01-17-22
64 Siavash Tazari 40.9% 10815 01-17-22
65 videogamemaster777 40.8% 10823 01-17-22
66 buddychaos0415 40.2% 10936 01-17-22
67 SadisticMystic 39.6% 11045 01-17-22
68 ethmar 39.1% 11138 01-17-22
69 eggFL 38.9% 11186 01-17-22
70 Calfd 38.0% 11339 01-17-22
71 SB737 37.2% 11489 01-17-22
72 supersonic465 36.8% 11558 01-17-22
73 supersonicfan 36.2% 11671 01-17-22
74 FuzZerd 34.9% 11912 01-17-22
75 Aitamen 34.5% 11979 01-17-22
76 BigAL49 34.2% 12046 01-17-22
77 danieldude 34.0% 12072 01-17-22
78 elecmouse101 34.0% 12076 01-17-22
79 Austinf 33.2% 12216 01-17-22
80 metanightmare22 33.0% 12266 01-17-22
81 dabestgamer 32.7% 12318 01-17-22
82 MiStEr_ShAoLiN 32.3% 12387 01-17-22
83 Andrea Ritsu 31.5% 12529 01-17-22
83 Mastakirby 31.5% 12529 01-17-22
85 itsPersonnal 31.2% 12587 01-17-22
86 JamminX42 30.5% 12713 01-17-22
87 Cybrax 30.4% 12727 01-17-22
87 SilvertheAlmighty 30.4% 12727 01-17-22
89 WeegeeZV 30.3% 12760 01-17-22
90 VMU Player Banned 28.4% 13105 01-17-22
91 Staf 28.0% 13167 01-17-22
92 Omega Rafael Santos 27.8% 13213 01-17-22
93 The T 27.6% 13253 01-17-22
94 EngiNerd 27.4% 13286 01-17-22
95 lordmetalsonic 27.0% 13361 01-17-22
96 Hipertails12 26.5% 13447 01-17-22
97 welldooder64 26.3% 13482 01-17-22
98 GreatStar 26.0% 13531 01-17-22
99 The Great Lord Mick 26.0% 13545 01-17-22
100 Sondow 25.8% 13573 01-17-22
101 LinksDarkArrows 25.7% 13592 01-17-22
102 Skylace 24.7% 13780 01-17-22
103 a_moustache 23.8% 13949 01-17-22
104 Rolken 23.3% 14042 01-17-22
105 andy120195 22.5% 14173 01-17-22
106 Spinballwizard 21.6% 14348 01-17-22
107 Kogen Player Banned 21.6% 14351 01-17-22
108 Xia 21.5% 14368 01-17-22
109 f0rever_zer0 21.2% 14426 01-17-22
110 Twilisailor 21.1% 14434 01-17-22
111 Pokemonmaster888 21.0% 14453 01-17-22
112 Don 21.0% 14458 01-17-22
113 Miles9999 20.9% 14481 01-17-22
114 Cutiefox 20.8% 14483 01-17-22
115 Game_Complete 20.8% 14494 01-17-22
116 iden1 20.7% 14516 01-17-22
117 andres430 20.3% 14585 01-17-22
118 Cruizer 20.0% 14641 01-17-22
119 iSonicKid2K 19.9% 14651 01-17-22
120 SADXTryHard 19.6% 14710 01-17-22
121 GarnetPrincess 19.2% 14788 01-17-22
122 N 18.9% 14830 01-17-22
123 AxlThunder 18.7% 14874 01-17-22
124 knuckles_sonic8 18.4% 14931 01-17-22
125 Team_Yoshi 17.9% 15030 01-17-22
126 KinkyCadence 17.8% 15033 01-17-22
127 The Knuckles Chao 17.8% 15042 01-17-22
128 Termon 17.5% 15095 01-17-22
129 LittleBigness 17.4% 15120 01-17-22
130 SonicWinDX 17.2% 15142 01-17-22
131 FoxBoy 17.2% 15144 01-17-22
132 Zethor 17.1% 15163 01-17-22
133 Drakodan 16.5% 15283 01-17-22
134 Modest 16.0% 15373 01-17-22
135 Sonic Singularity 15.5% 15462 01-17-22
136 paulie9990 14.8% 15596 01-17-22
137 SilverSonic 14.2% 15697 01-17-22
138 MPit08 14.2% 15705 01-17-22
139 sonicd5 14.1% 15726 01-17-22
140 Mo Player Banned 13.8% 15777 01-17-22
141 koinu93 13.6% 15802 01-17-22
142 Cod4Scopes 13.3% 15871 01-17-22
143 HyperSonic64 13.1% 15892 01-17-22
144 booo95 13.1% 15906 01-17-22
145 Jerzia 13.0% 15910 01-17-22
146 Hunters13 13.0% 15920 01-17-22
147 Chawkk 12.8% 15953 01-17-22
148 SuperSonic101 12.7% 15972 01-17-22
149 Maxinfamily 12.6% 15990 01-17-22
150 R3FR4G 12.5% 16009 01-17-22
151 PsyBorg 12.4% 16037 01-17-22
152 LilZero 12.3% 16050 01-17-22
153 Kanimayo_Jp 12.3% 16052 01-17-22
154 Flying Fox 12.2% 16069 01-17-22
155 BrokenArthritis 12.1% 16089 01-17-22
156 Therio 11.7% 16159 01-17-22
157 sonicspeed 11.6% 16181 01-17-22
158 SonicAD 11.4% 16215 01-17-22
159 douglas 11.3% 16223 01-17-22
160 Matt_TY 11.1% 16264 01-17-22
161 thewaytodawnnn 11.1% 16269 01-17-22
162 ModifiedMonkee 11.0% 16292 01-17-22
163 Cooljay 10.5% 16373 01-17-22
164 SuperBlitzCraig 10.4% 16393 01-17-22
165 joecoolgames 10.4% 16400 01-17-22
166 SeaWolf 10.4% 16401 01-17-22
167 videogamer1014 10.1% 16442 01-17-22
168 AC-Tygo 9.9% 16482 01-17-22
169 welshmoose05 9.8% 16500 01-17-22
170 OddCook 9.7% 16527 01-17-22
171 crazy1993 9.5% 16551 01-17-22
172 TFEC Headshot 9.5% 16563 01-17-22
173 Mcshuggets 9.4% 16582 01-17-22
174 Mariobutch 9.2% 16608 01-17-22
175 niscool 9.1% 16636 01-17-22
176 Irregular Zero 9.0% 16646 01-17-22
177 nuckrieg 8.9% 16668 01-17-22
178 Shadowthegreat 8.8% 16694 01-17-22
179 superjupi 8.7% 16701 01-17-22
180 SirTobbii 8.7% 16715 01-17-22
181 sonamyfan666 8.5% 16749 01-17-22
182 Powerjohn25 8.4% 16758 01-17-22
183 iarebored 8.4% 16763 01-17-22
184 SaviourDC 8.3% 16776 01-17-22
185 SonicKnuckles 8.3% 16778 01-17-22
186 Badlex727 8.2% 16795 01-17-22
187 Werey 8.1% 16822 01-17-22
188 adf 8.0% 16836 01-17-22
189 Megaman EXE565 7.7% 16894 01-17-22
190 ArcticDragon 7.5% 16926 01-17-22
191 Platformer 7.3% 16956 01-17-22
192 timpkmn89 7.2% 16977 01-17-22
193 Swift Hobo 7.2% 16987 01-17-22
194 FocusSight64 7.1% 16992 01-17-22
195 Vicklaw 7.0% 17010 01-17-22
196 wheatrich 7.0% 17015 01-17-22
197 Rickyman48 6.9% 17042 01-17-22
198 KitsuneYamaro 6.8% 17059 01-17-22
199 Sm4sh 6.7% 17068 01-17-22
200 Triseena 6.5% 17110 01-17-22
201 Tethys 6.5% 17115 01-17-22
202 CyberShadow 6.3% 17142 01-17-22
203 Starlight Sable 6.3% 17144 01-17-22
204 Destroyer121121 6.3% 17145 01-17-22
205 slade23 6.3% 17150 01-17-22
206 dShadow 6.2% 17171 01-17-22
207 IsisDazs 6.1% 17178 01-17-22
208 BlankTH 5.9% 17221 01-17-22
209 Monkeh 5.8% 17242 01-17-22
210 SonicU260 5.6% 17273 01-17-22
211 DaDude 5.5% 17292 01-17-22
212 Richied 5.5% 17296 01-17-22
212 Swinkly 5.5% 17296 01-17-22
214 Crispian 5.5% 17297 01-17-22
215 Zip 5.3% 17321 01-17-22
216 VeritasDL 5.1% 17369 01-17-22
217 tal39h 5.0% 17382 01-17-22
218 ALundstrom10 4.9% 17394 01-17-22
219 Kirbymon30 4.9% 17397 01-17-22
220 soniccoloursunleashed 4.8% 17427 01-17-22
221 Drflash55 4.7% 17441 01-17-22
222 Bass 4.6% 17453 01-17-22
223 Yish 4.5% 17469 01-17-22
224 neaolas 4.5% 17472 01-17-22
225 zapp 4.5% 17473 01-17-22
226 ArthurVGCP 4.5% 17477 01-17-22
227 UninspiredUsername 4.4% 17485 01-17-22
228 Sonicsuperstar1 4.4% 17489 01-17-22
229 superiorsonic 4.4% 17493 01-17-22
230 gamefreak1292 4.4% 17500 01-17-22
231 Sora_yx 4.2% 17531 01-17-22
232 Chaos_Overlord 4.0% 17568 01-17-22
233 TakaRikka 3.9% 17584 01-17-22
234 Valfore 3.9% 17590 01-17-22
235 Dage4Aquatic 3.8% 17607 01-17-22
236 ShinigamiMachine 3.7% 17618 01-17-22
237 Regano1000 3.6% 17640 01-17-22
238 MK 3.5% 17655 01-17-22
239 Ace747 3.5% 17666 01-17-22
240 Jua Rever 3.3% 17695 01-17-22
241 Illidan 3.1% 17739 01-17-22
242 HHNNBBHHN 3.1% 17740 01-17-22
242 Venick409 3.1% 17740 01-17-22
244 Brian_pso 3.0% 17746 01-17-22
245 nman36 3.0% 17748 01-17-22
245 Sithwarrior26 3.0% 17748 01-17-22
247 Egor305 2.9% 17776 01-17-22
248 TheChaosEmeraIds 2.8% 17780 01-17-22
249 ingx24 2.8% 17781 01-17-22
250 Nickson98 2.8% 17791 01-17-22
251 SkyBon 2.8% 17793 01-17-22
252 dekki1234 2.7% 17796 01-17-22
253 FSSRandomvids 2.7% 17798 01-17-22
254 Fozer 2.7% 17812 01-17-22
255 sonic29887 2.6% 17821 01-17-22
256 Colomb_30 2.6% 17824 01-17-22
257 Aiko 2.6% 17827 01-17-22
257 TheUltraBlur 2.6% 17827 01-17-22
259 1stKirbyever 2.5% 17835 01-17-22
260 TimTH 2.4% 17853 01-17-22
261 Th4tN1nj4Turtl3 2.3% 17880 01-17-22
262 Cort_pso 2.2% 17889 01-17-22
263 ieatatsonic 2.2% 17895 01-17-22
264 Doom-9 2.2% 17898 01-17-22
265 Mariosonic15 2.1% 17906 01-17-22
266 MStitomix 2.1% 17919 01-17-22
267 HermitHelmet 2.1% 17923 01-17-22
268 arcfx1985 2.0% 17928 01-17-22
269 SuperSonic71087 2.0% 17941 01-17-22
270 Got4n 1.9% 17944 01-17-22
271 Artie 1.9% 17946 01-17-22
272 Jose_15 1.9% 17953 01-17-22
273 Questionguy555 1.9% 17954 01-17-22
274 djmat 1.8% 17969 01-17-22
275 SuperSonicfan9595 1.8% 17973 01-17-22
276 sonicandamy 1.7% 17994 01-17-22
277 LancexExWx 1.7% 17996 01-17-22
278 Paixii 1.6% 17999 01-17-22
279 son1cgu1tar 1.6% 18004 01-17-22
280 Heroes_Hater 1.5% 18016 01-17-22
281 BallzeH 1.5% 18020 01-17-22
282 Jamixesa 1.5% 18023 01-17-22
283 Mankster101 1.5% 18028 01-17-22
284 BecauseWarAnvil 1.5% 18031 01-17-22
285 Xandre69 1.4% 18035 01-17-22
286 Shanekilz 1.4% 18043 01-17-22
287 Crydio 1.4% 18044 01-17-22
288 SpiritDragon1995 1.4% 18047 01-17-22
289 MarewBFN 1.3% 18059 01-17-22
290 stanski 1.3% 18063 01-17-22
291 Sonique Hedgehog 1.3% 18066 01-17-22
292 Blue Infamy 1.2% 18080 01-17-22
293 p0ker 1.2% 18082 01-17-22
294 ErrortheCucco 1.1% 18091 01-17-22
295 Arthas 1.1% 18094 01-17-22
295 Rikum22 1.1% 18094 01-17-22
297 sonic1001 1.1% 18102 01-17-22
298 AJSIV 1.1% 18105 01-17-22
299 syco1098 1.0% 18108 01-17-22
300 IDGeek121 1.0% 18110 01-17-22
300 Sonic the Hedgehod16 1.0% 18110 01-17-22
302 WingedInsignia 1.0% 18112 01-17-22
303 ASINISTERTACO 1.0% 18118 01-17-22
304 sonicfan9 0.9% 18125 01-17-22
305 BlackArmsShadow 0.9% 18134 01-17-22
306 themachoman202 0.9% 18135 01-17-22
307 shadowblast63 Player Banned 0.9% 18143 01-17-22
308 Fivavoa 0.8% 18144 01-17-22
309 Mr. Jones 0.8% 18146 01-17-22
310 Ben1502 0.8% 18147 01-17-22
310 Greham Adelphis 0.8% 18147 01-17-22
312 darkstarblaze 0.8% 18148 01-17-22
312 MastaToken 0.8% 18148 01-17-22
314 TommyeAsY 0.8% 18149 01-17-22
315 FlandreScarlet9999vr 0.8% 18155 01-17-22
315 ptorflaxendrosis 0.8% 18155 01-17-22
317 Gvozdevik 0.8% 18157 01-17-22
318 Zeldocto 0.8% 18160 01-17-22
319 Knuckles 0.8% 18161 01-17-22
320 BeeAwwb 0.7% 18163 01-17-22
321 KaM Mark MaK 0.7% 18168 01-17-22
322 ShadouZaHejjihoggu 0.7% 18170 01-17-22
323 Sonic The Star 0.6% 18180 01-17-22
324 darkersupershadic 0.6% 18181 01-17-22
325 Sogeking 0.6% 18183 01-17-22
326 Sonic62 0.6% 18184 01-17-22
327 SonicK100 0.6% 18187 01-17-22
328 Sarger001 0.6% 18188 01-17-22
329 Grady219 0.6% 18189 01-17-22
330 dragondragon18 0.6% 18190 01-17-22
331 Shadygamerfreak 0.6% 18191 01-17-22
332 Jawaah 0.6% 18194 01-17-22
333 Antek 0.6% 18198 01-17-22
334 Klaus 0.5% 18200 01-17-22
334 SpinDashMaster 0.5% 18200 01-17-22
336 SilverK 0.5% 18202 01-17-22
337 BioShadow 0.5% 18208 01-17-22
338 Videogamer123 0.5% 18213 01-17-22
339 IcKY 0.5% 18216 01-17-22
340 isaihtb11 0.4% 18223 01-17-22
340 oTaiIilLsS 0.4% 18223 01-17-22
342 OhNoes! 0.4% 18228 01-17-22
343 zaktu40 0.4% 18230 01-17-22
344 Mad Andy 0.4% 18231 01-17-22
344 S-MS32X-S 0.4% 18231 01-17-22
346 gaara1234 0.4% 18233 01-17-22
347 gamed00d 0.3% 18239 01-17-22
348 Mister_Slick 0.3% 18244 01-17-22
349 Sonic06Fan 0.3% 18248 01-17-22
350 Rush Hero 0.3% 18250 01-17-22
351 ChaosNexuss 0.3% 18251 01-17-22
352 SonicMega167 0.2% 18256 01-17-22
353 sonknuck23 0.2% 18259 01-17-22
354 Iwannabelink 0.2% 18260 01-17-22
355 DanielTheFalcon 0.2% 18269 01-17-22
355 gamer1245 0.2% 18269 01-17-22
357 Burningskull123 0.1% 18275 01-17-22
358 Sonicontherun 0.1% 18287 01-17-22
359 Lil_Dude 0.1% 18289 01-17-22
360 antiwwe 0.0% 18293 01-17-22
361 Cbwade15 0.0% 18297 01-17-22
361 Genuine Hedgehog 0.0% 18297 01-17-22
363 Tyrouble 0.0% 18301 01-17-22
364 MakoHNM 0.0% 18308 01-17-22
364 MegabombBlade 0.0% 18308 01-17-22
364 neji_hyuuga 0.0% 18308 01-17-22
364 Over 0.0% 18308 01-17-22
364 sdj6707 Player Banned 0.0% 18308 01-17-22
364 Tran Sonic Fan Player Banned 0.0% 18308 01-17-22

This page is using the New Data Table System. [FUTURE]

Game ID: 3 | Category ID: 10
Hits: 81,388 | Hits This Month: 103 | DB Calls: 21 | Mem Usage: 1.00 MB | Time: 0.05s | Printable

The Sonic Center v3.9
Copyright 2003-2011 by The Sonic Center Team.